createdAt,value
2018-05-13T00:00:43.772Z,86.65
2018-05-13T00:01:44.449Z,86.56
2018-05-13T00:02:45.124Z,86.56
2018-05-13T00:03:45.798Z,86.65
2018-05-13T00:04:46.476Z,86.56
2018-05-13T00:05:47.153Z,87.52
2018-05-13T00:06:47.830Z,87.52
2018-05-13T00:07:48.507Z,86.94
2018-05-13T00:08:49.189Z,87.90
2018-05-13T00:09:49.866Z,87.33
2018-05-13T00:10:50.549Z,87.71
2018-05-13T00:11:51.231Z,87.52
2018-05-13T00:12:51.914Z,87.71
2018-05-13T00:13:52.588Z,88.39
2018-05-13T00:14:53.268Z,88.39
2018-05-13T00:15:53.944Z,87.90
2018-05-13T00:16:54.619Z,88.19
2018-05-13T00:17:55.299Z,88.19
2018-05-13T00:18:55.972Z,88.87
2018-05-13T00:19:56.645Z,88.77
2018-05-13T00:20:57.331Z,88.67
2018-05-13T00:21:58.010Z,88.39
2018-05-13T00:22:58.687Z,88.87
2018-05-13T00:23:59.363Z,88.87
2018-05-13T00:25:00.041Z,88.77
2018-05-13T00:26:00.730Z,89.64
2018-05-13T00:27:01.412Z,89.35
2018-05-13T00:28:02.094Z,89.54
2018-05-13T00:29:02.769Z,89.73
2018-05-13T00:30:03.448Z,90.31
2018-05-13T00:31:04.120Z,90.12
2018-05-13T00:32:04.810Z,89.98
2018-05-13T00:33:05.489Z,89.98
2018-05-13T00:34:06.162Z,90.45
2018-05-13T00:35:06.835Z,90.07
2018-05-13T00:36:07.515Z,90.45
2018-05-13T00:37:08.192Z,90.69
2018-05-13T00:38:08.864Z,90.75
2018-05-13T00:39:09.546Z,90.65
2018-05-13T00:40:10.223Z,91.13
2018-05-13T00:41:10.900Z,91.52
2018-05-13T00:42:11.577Z,91.32
2018-05-13T00:43:12.254Z,91.03
2018-05-13T00:44:12.931Z,91.13
2018-05-13T00:45:13.606Z,91.52
2018-05-13T00:46:14.281Z,91.52
2018-05-13T00:47:14.956Z,91.61
2018-05-13T00:48:15.629Z,91.42
2018-05-13T00:49:16.305Z,91.90
2018-05-13T00:50:16.982Z,91.52
2018-05-13T00:51:17.657Z,92.19
2018-05-13T00:52:18.332Z,91.42
2018-05-13T00:53:19.010Z,91.80
2018-05-13T00:54:19.687Z,91.99
2018-05-13T00:55:20.362Z,91.80
2018-05-13T00:56:21.037Z,91.90
2018-05-13T00:57:21.711Z,92.29
2018-05-13T00:58:22.386Z,92.47
2018-05-13T00:59:23.059Z,92.76
2018-05-13T01:00:23.732Z,92.57
2018-05-13T01:01:24.410Z,92.96
2018-05-13T01:02:25.088Z,92.57
2018-05-13T01:03:25.769Z,92.96
2018-05-13T01:04:26.465Z,93.15
2018-05-13T01:05:27.131Z,93.24
2018-05-13T01:06:27.806Z,92.57
2018-05-13T01:07:28.479Z,92.47
2018-05-13T01:08:29.154Z,93.01
2018-05-13T01:09:29.831Z,93.05
2018-05-13T01:10:30.580Z,92.96
2018-05-13T01:11:31.183Z,93.87
2018-05-13T01:12:31.858Z,93.58
2018-05-13T01:13:32.535Z,93.24
2018-05-13T01:14:33.213Z,93.10
2018-05-13T01:15:33.885Z,93.77
2018-05-13T01:16:34.562Z,93.77
2018-05-13T01:17:35.238Z,93.19
2018-05-13T01:18:35.974Z,93.77
2018-05-13T01:19:36.591Z,92.91
2018-05-13T01:20:37.262Z,93.24
2018-05-13T01:21:37.935Z,93.10
2018-05-13T01:22:38.618Z,93.19
2018-05-13T01:23:39.293Z,93.29
2018-05-13T01:24:39.968Z,93.87
2018-05-13T01:25:40.648Z,93.77
2018-05-13T01:26:41.325Z,93.49
2018-05-13T01:27:41.997Z,93.87
2018-05-13T01:28:42.672Z,94.06
2018-05-13T01:29:43.348Z,94.06
2018-05-13T01:30:44.022Z,94.26
2018-05-13T01:31:44.698Z,94.06
2018-05-13T01:32:45.373Z,94.35
2018-05-13T01:33:46.046Z,94.35
2018-05-13T01:34:46.721Z,94.35
2018-05-13T01:35:47.399Z,94.26
2018-05-13T01:36:48.080Z,95.12
2018-05-13T01:37:48.759Z,94.64
2018-05-13T01:38:49.436Z,95.03
2018-05-13T01:39:50.111Z,94.83
2018-05-13T01:40:50.785Z,94.73
2018-05-13T01:41:51.462Z,94.16
2018-05-13T01:42:52.208Z,94.49
2018-05-13T01:43:52.810Z,94.40
2018-05-13T01:44:53.488Z,94.11
2018-05-13T01:45:54.163Z,94.31
2018-05-13T01:46:54.840Z,94.31
2018-05-13T01:47:55.518Z,94.59
2018-05-13T01:48:56.197Z,94.54
2018-05-13T01:49:56.867Z,95.07
2018-05-13T01:50:57.549Z,95.26
2018-05-13T01:51:58.223Z,95.07
2018-05-13T01:52:58.897Z,95.07
2018-05-13T01:53:59.571Z,95.07
2018-05-13T01:55:00.248Z,95.36
2018-05-13T01:56:00.918Z,95.07
2018-05-13T01:57:01.592Z,95.17
2018-05-13T01:58:02.335Z,95.26
2018-05-13T01:59:02.945Z,95.26
2018-05-13T02:00:03.621Z,95.26
2018-05-13T02:01:04.297Z,95.07
2018-05-13T02:02:04.973Z,94.98
2018-05-13T02:03:05.653Z,95.26
2018-05-13T02:04:06.328Z,95.36
2018-05-13T02:05:07.003Z,95.36
2018-05-13T02:06:07.677Z,95.07
2018-05-13T02:07:08.352Z,95.17
2018-05-13T02:08:09.026Z,95.36
2018-05-13T02:09:09.699Z,95.45
2018-05-13T02:10:10.375Z,95.26
2018-05-13T02:11:11.050Z,95.55
2018-05-13T02:12:11.726Z,95.36
2018-05-13T02:13:12.404Z,95.26
2018-05-13T02:14:13.089Z,95.45
2018-05-13T02:15:13.765Z,95.55
2018-05-13T02:16:14.438Z,95.45
2018-05-13T02:17:15.119Z,95.07
2018-05-13T02:18:15.790Z,95.26
2018-05-13T02:19:16.465Z,95.45
2018-05-13T02:20:17.140Z,95.17
2018-05-13T02:21:17.816Z,95.65
2018-05-13T02:22:18.506Z,95.17
2018-05-13T02:23:19.167Z,95.26
2018-05-13T02:24:19.843Z,95.17
2018-05-13T02:25:20.516Z,95.17
2018-05-13T02:26:21.192Z,95.17
2018-05-13T02:27:21.866Z,95.17
2018-05-13T02:28:22.539Z,94.78
2018-05-13T02:29:23.212Z,94.88
2018-05-13T02:30:23.889Z,94.40
2018-05-13T02:31:24.567Z,94.40
2018-05-13T02:32:25.241Z,94.40
2018-05-13T02:33:25.916Z,94.88
2018-05-13T02:34:26.595Z,94.40
2018-05-13T02:35:27.270Z,94.40
2018-05-13T02:36:27.949Z,94.49
2018-05-13T02:37:28.622Z,94.31
2018-05-13T02:38:29.300Z,95.17
2018-05-13T02:39:29.974Z,95.26
2018-05-13T02:40:30.657Z,94.49
2018-05-13T02:41:31.330Z,95.07
2018-05-13T02:42:32.003Z,95.45
2018-05-13T02:43:32.682Z,94.49
2018-05-13T02:44:33.356Z,94.59
2018-05-13T02:45:34.037Z,94.49
2018-05-13T02:46:34.715Z,94.78
2018-05-13T02:47:35.391Z,94.78
2018-05-13T02:48:36.070Z,94.98
2018-05-13T02:49:36.743Z,94.59
2018-05-13T02:50:37.419Z,94.59
2018-05-13T02:51:38.094Z,94.78
2018-05-13T02:52:38.771Z,94.59
2018-05-13T02:53:39.453Z,95.17
2018-05-13T02:54:40.123Z,95.17
2018-05-13T02:55:40.799Z,95.03
2018-05-13T02:56:41.473Z,94.93
2018-05-13T02:57:42.146Z,95.12
2018-05-13T02:58:42.829Z,95.12
2018-05-13T02:59:43.507Z,94.45
2018-05-13T03:00:44.184Z,94.45
2018-05-13T03:01:44.859Z,94.59
2018-05-13T03:02:45.541Z,94.54
2018-05-13T03:03:46.219Z,94.45
2018-05-13T03:04:46.898Z,94.35
2018-05-13T03:05:47.571Z,94.83
2018-05-13T03:06:48.262Z,94.16
2018-05-13T03:07:48.928Z,94.45
2018-05-13T03:08:49.602Z,94.40
2018-05-13T03:09:50.281Z,94.16
2018-05-13T03:10:50.964Z,94.88
2018-05-13T03:11:51.654Z,94.64
2018-05-13T03:12:52.326Z,94.12
2018-05-13T03:13:52.999Z,94.31
2018-05-13T03:14:53.672Z,94.07
2018-05-13T03:15:54.354Z,94.26
2018-05-13T03:16:55.027Z,94.26
2018-05-13T03:17:55.698Z,93.87
2018-05-13T03:18:56.392Z,94.07
2018-05-13T03:19:57.052Z,94.31
2018-05-13T03:20:57.735Z,94.12
2018-05-13T03:21:58.411Z,94.31
2018-05-13T03:22:59.092Z,94.31
2018-05-13T03:23:59.768Z,94.35
2018-05-13T03:25:00.441Z,93.77
2018-05-13T03:26:01.117Z,93.77
2018-05-13T03:27:01.795Z,93.77
2018-05-13T03:28:02.469Z,93.68
2018-05-13T03:29:03.148Z,93.82
2018-05-13T03:30:03.830Z,93.77
2018-05-13T03:31:04.501Z,93.44
2018-05-13T03:32:05.178Z,93.25
2018-05-13T03:33:05.852Z,93.25
2018-05-13T03:34:06.537Z,93.68
2018-05-13T03:35:07.212Z,93.25
2018-05-13T03:36:07.890Z,93.44
2018-05-13T03:37:08.567Z,93.59
2018-05-13T03:38:09.244Z,93.63
2018-05-13T03:39:09.920Z,93.25
2018-05-13T03:40:10.593Z,93.30
2018-05-13T03:41:11.268Z,93.44
2018-05-13T03:42:11.948Z,93.54
2018-05-13T03:43:12.617Z,93.44
2018-05-13T03:44:13.297Z,93.77
2018-05-13T03:45:13.970Z,93.59
2018-05-13T03:46:14.649Z,93.77
2018-05-13T03:47:15.323Z,93.68
2018-05-13T03:48:16.000Z,93.77
2018-05-13T03:49:16.678Z,93.25
2018-05-13T03:50:17.360Z,93.73
2018-05-13T03:51:18.042Z,93.73
2018-05-13T03:52:18.715Z,93.68
2018-05-13T03:53:19.402Z,93.44
2018-05-13T03:54:20.089Z,93.44
2018-05-13T03:55:20.769Z,93.25
2018-05-13T03:56:21.453Z,92.86
2018-05-13T03:57:22.128Z,92.77
2018-05-13T03:58:22.860Z,93.25
2018-05-13T03:59:23.483Z,93.35
2018-05-13T04:00:24.163Z,93.25
2018-05-13T04:01:24.842Z,93.25
2018-05-13T04:02:25.523Z,92.96
2018-05-13T04:03:26.200Z,92.86
2018-05-13T04:04:26.877Z,93.06
2018-05-13T04:05:27.567Z,92.86
2018-05-13T04:06:28.241Z,92.77
2018-05-13T04:07:29.004Z,92.00
2018-05-13T04:08:29.595Z,92.29
2018-05-13T04:09:30.275Z,91.62
2018-05-13T04:10:30.953Z,91.19
2018-05-13T04:11:31.631Z,91.72
2018-05-13T04:12:32.308Z,91.09
2018-05-13T04:13:32.984Z,91.24
2018-05-13T04:14:33.660Z,91.33
2018-05-13T04:15:34.342Z,91.14
2018-05-13T04:16:35.016Z,91.62
2018-05-13T04:17:35.698Z,90.90
2018-05-13T04:18:36.376Z,91.42
2018-05-13T04:19:37.049Z,91.24
2018-05-13T04:20:37.724Z,91.24
2018-05-13T04:21:38.405Z,91.24
2018-05-13T04:22:39.082Z,91.33
2018-05-13T04:23:39.758Z,91.14
2018-05-13T04:24:40.435Z,91.42
2018-05-13T04:25:41.111Z,91.14
2018-05-13T04:26:41.790Z,91.24
2018-05-13T04:27:42.466Z,91.33
2018-05-13T04:28:43.144Z,90.95
2018-05-13T04:29:43.824Z,91.24
2018-05-13T04:30:44.507Z,91.14
2018-05-13T04:31:45.184Z,90.95
2018-05-13T04:32:45.863Z,90.56
2018-05-13T04:33:46.539Z,90.75
2018-05-13T04:34:47.221Z,90.56
2018-05-13T04:35:47.897Z,90.75
2018-05-13T04:36:48.573Z,90.85
2018-05-13T04:37:49.253Z,90.75
2018-05-13T04:38:49.929Z,90.75
2018-05-13T04:39:50.607Z,90.66
2018-05-13T04:40:51.284Z,90.85
2018-05-13T04:41:51.958Z,90.90
2018-05-13T04:42:52.637Z,90.90
2018-05-13T04:43:53.317Z,91.00
2018-05-13T04:44:53.999Z,90.85
2018-05-13T04:45:54.676Z,90.85
2018-05-13T04:46:55.357Z,90.90
2018-05-13T04:47:56.041Z,90.61
2018-05-13T04:48:56.717Z,90.37
2018-05-13T04:49:57.396Z,90.52
2018-05-13T04:50:58.077Z,90.61
2018-05-13T04:51:58.758Z,90.71
2018-05-13T04:52:59.435Z,90.52
2018-05-13T04:54:00.113Z,90.66
2018-05-13T04:55:00.794Z,90.14
2018-05-13T04:56:01.478Z,90.28
2018-05-13T04:57:02.158Z,90.52
2018-05-13T04:58:02.843Z,90.23
2018-05-13T04:59:03.522Z,90.23
2018-05-13T05:00:04.203Z,90.23
2018-05-13T05:01:04.888Z,89.85
2018-05-13T05:02:05.566Z,90.28
2018-05-13T05:03:06.246Z,90.04
2018-05-13T05:04:06.931Z,90.23
2018-05-13T05:05:07.614Z,89.94
2018-05-13T05:06:08.290Z,90.28
2018-05-13T05:07:08.970Z,90.56
2018-05-13T05:08:09.645Z,90.47
2018-05-13T05:09:10.323Z,89.70
2018-05-13T05:10:11.003Z,89.89
2018-05-13T05:11:11.693Z,90.37
2018-05-13T05:12:12.370Z,89.70
2018-05-13T05:13:13.051Z,89.61
2018-05-13T05:14:13.732Z,89.70
2018-05-13T05:15:14.411Z,89.79
2018-05-13T05:16:15.085Z,89.51
2018-05-13T05:17:15.765Z,89.51
2018-05-13T05:18:16.449Z,89.51
2018-05-13T05:19:17.131Z,89.51
2018-05-13T05:20:17.812Z,89.32
2018-05-13T05:21:18.490Z,89.51
2018-05-13T05:22:19.169Z,89.51
2018-05-13T05:23:19.851Z,89.41
2018-05-13T05:24:20.527Z,89.22
2018-05-13T05:25:21.202Z,89.32
2018-05-13T05:26:21.879Z,89.32
2018-05-13T05:27:22.559Z,89.22
2018-05-13T05:28:23.236Z,88.84
2018-05-13T05:29:23.922Z,89.03
2018-05-13T05:30:24.607Z,88.55
2018-05-13T05:31:25.286Z,88.35
2018-05-13T05:32:25.970Z,88.49
2018-05-13T05:33:26.650Z,88.40
2018-05-13T05:34:27.329Z,88.55
2018-05-13T05:35:28.012Z,88.69
2018-05-13T05:36:28.690Z,88.31
2018-05-13T05:37:29.369Z,88.88
2018-05-13T05:38:30.045Z,88.59
2018-05-13T05:39:30.729Z,88.59
2018-05-13T05:40:31.412Z,88.79
2018-05-13T05:41:32.093Z,88.59
2018-05-13T05:42:32.775Z,88.59
2018-05-13T05:43:33.456Z,89.07
2018-05-13T05:44:34.130Z,89.36
2018-05-13T05:45:34.818Z,89.17
2018-05-13T05:46:35.501Z,89.26
2018-05-13T05:47:36.177Z,89.26
2018-05-13T05:48:36.857Z,89.26
2018-05-13T05:49:37.537Z,89.17
2018-05-13T05:50:38.225Z,89.17
2018-05-13T05:51:38.907Z,89.46
2018-05-13T05:52:39.589Z,89.46
2018-05-13T05:53:40.266Z,89.65
2018-05-13T05:54:40.947Z,89.65
2018-05-13T05:55:41.622Z,89.46
2018-05-13T05:56:42.311Z,89.46
2018-05-13T05:57:42.987Z,89.26
2018-05-13T05:58:43.667Z,89.55
2018-05-13T05:59:44.349Z,89.65
2018-05-13T06:00:45.028Z,89.65
2018-05-13T06:01:45.706Z,89.55
2018-05-13T06:02:46.382Z,89.46
2018-05-13T06:03:47.077Z,89.46
2018-05-13T06:04:47.737Z,90.03
2018-05-13T06:05:48.419Z,89.94
2018-05-13T06:06:49.096Z,89.94
2018-05-13T06:07:49.774Z,89.89
2018-05-13T06:08:50.469Z,89.89
2018-05-13T06:09:51.147Z,89.79
2018-05-13T06:10:51.824Z,89.69
2018-05-13T06:11:52.501Z,90.84
2018-05-13T06:12:53.180Z,90.66
2018-05-13T06:13:53.853Z,90.66
2018-05-13T06:14:54.554Z,90.37
2018-05-13T06:15:55.241Z,90.17
2018-05-13T06:16:55.919Z,90.27
2018-05-13T06:17:56.593Z,90.17
2018-05-13T06:18:57.279Z,90.84
2018-05-13T06:19:57.956Z,90.37
2018-05-13T06:20:58.642Z,91.04
2018-05-13T06:21:59.321Z,91.33
2018-05-13T06:23:00.011Z,90.84
2018-05-13T06:24:00.692Z,90.94
2018-05-13T06:25:01.376Z,91.13
2018-05-13T06:26:02.050Z,91.13
2018-05-13T06:27:02.730Z,91.42
2018-05-13T06:28:03.415Z,90.84
2018-05-13T06:29:04.112Z,91.13
2018-05-13T06:30:04.795Z,91.04
2018-05-13T06:31:05.479Z,90.75
2018-05-13T06:32:06.161Z,90.84
2018-05-13T06:33:06.842Z,90.80
2018-05-13T06:34:07.519Z,90.99
2018-05-13T06:35:08.201Z,90.89
2018-05-13T06:36:08.880Z,90.80
2018-05-13T06:37:09.563Z,90.70
2018-05-13T06:38:10.251Z,90.70
2018-05-13T06:39:10.929Z,91.37
2018-05-13T06:40:11.608Z,91.37
2018-05-13T06:41:12.288Z,91.18
2018-05-13T06:42:12.967Z,91.66
2018-05-13T06:43:13.646Z,91.56
2018-05-13T06:44:14.328Z,91.37
2018-05-13T06:45:15.062Z,91.56
2018-05-13T06:46:15.686Z,91.56
2018-05-13T06:47:16.366Z,91.47
2018-05-13T06:48:17.051Z,91.56
2018-05-13T06:49:17.733Z,91.56
2018-05-13T06:50:18.415Z,91.61
2018-05-13T06:51:19.221Z,91.61
2018-05-13T06:52:19.785Z,91.80
2018-05-13T06:53:20.470Z,91.80
2018-05-13T06:54:21.149Z,92.19
2018-05-13T06:55:21.833Z,92.19
2018-05-13T06:56:22.522Z,91.32
2018-05-13T06:57:23.258Z,92.09
2018-05-13T06:58:23.862Z,91.90
2018-05-13T06:59:24.560Z,92.09
2018-05-13T07:00:25.238Z,92.09
2018-05-13T07:01:25.917Z,92.09
2018-05-13T07:02:26.598Z,91.80
2018-05-13T07:03:27.281Z,91.99
2018-05-13T07:04:27.962Z,91.90
2018-05-13T07:05:28.638Z,91.90
2018-05-13T07:06:29.318Z,92.09
2018-05-13T07:07:29.998Z,91.71
2018-05-13T07:08:30.682Z,91.80
2018-05-13T07:09:31.361Z,91.71
2018-05-13T07:10:32.062Z,91.80
2018-05-13T07:11:32.746Z,91.99
2018-05-13T07:12:33.426Z,91.80
2018-05-13T07:13:34.112Z,92.29
2018-05-13T07:14:34.791Z,91.85
2018-05-13T07:15:35.473Z,92.13
2018-05-13T07:16:36.159Z,91.94
2018-05-13T07:17:36.840Z,91.85
2018-05-13T07:18:37.522Z,91.99
2018-05-13T07:19:38.201Z,92.29
2018-05-13T07:20:38.883Z,92.33
2018-05-13T07:21:39.564Z,92.61
2018-05-13T07:22:40.241Z,92.43
2018-05-13T07:23:40.927Z,92.33
2018-05-13T07:24:41.602Z,91.94
2018-05-13T07:25:42.281Z,92.04
2018-05-13T07:26:42.970Z,92.23
2018-05-13T07:27:43.647Z,92.33
2018-05-13T07:28:44.329Z,92.71
2018-05-13T07:29:45.029Z,92.43
2018-05-13T07:30:45.693Z,92.52
2018-05-13T07:31:46.381Z,92.13
2018-05-13T07:32:47.062Z,92.43
2018-05-13T07:33:47.742Z,91.94
2018-05-13T07:34:48.422Z,92.47
2018-05-13T07:35:49.104Z,92.33
2018-05-13T07:36:49.789Z,92.13
2018-05-13T07:37:50.466Z,92.33
2018-05-13T07:38:51.149Z,92.91
2018-05-13T07:39:51.833Z,92.61
2018-05-13T07:40:52.512Z,92.57
2018-05-13T07:41:53.143Z,92.18
2018-05-13T07:42:53.873Z,92.57
2018-05-13T07:43:54.558Z,92.28
2018-05-13T07:44:55.241Z,92.28
2018-05-13T07:45:55.921Z,92.08
2018-05-13T07:46:56.596Z,91.60
2018-05-13T07:47:57.288Z,92.28
2018-05-13T07:48:57.966Z,92.57
2018-05-13T07:49:58.651Z,92.47
2018-05-13T07:50:59.387Z,92.38
2018-05-13T07:52:00.019Z,92.38
2018-05-13T07:53:00.712Z,92.28
2018-05-13T07:54:01.397Z,91.41
2018-05-13T07:55:02.080Z,91.41
2018-05-13T07:56:02.761Z,92.08
2018-05-13T07:57:03.444Z,92.38
2018-05-13T07:58:04.145Z,92.47
2018-05-13T07:59:04.828Z,92.52
2018-05-13T08:00:05.506Z,92.32
2018-05-13T08:01:06.192Z,92.42
2018-05-13T08:02:06.881Z,92.13
2018-05-13T08:03:07.563Z,92.22
2018-05-13T08:04:08.246Z,91.94
2018-05-13T08:05:08.926Z,92.13
2018-05-13T08:06:09.628Z,91.27
2018-05-13T08:07:10.294Z,91.84
2018-05-13T08:08:10.975Z,91.36
2018-05-13T08:09:11.664Z,91.46
2018-05-13T08:10:12.343Z,91.07
2018-05-13T08:11:13.023Z,90.78
2018-05-13T08:12:13.703Z,91.07
2018-05-13T08:13:14.383Z,92.18
2018-05-13T08:14:15.068Z,92.08
2018-05-13T08:15:15.748Z,92.08
2018-05-13T08:16:16.429Z,91.99
2018-05-13T08:17:17.117Z,92.37
2018-05-13T08:18:17.793Z,91.99
2018-05-13T08:19:18.487Z,92.37
2018-05-13T08:20:19.186Z,91.31
2018-05-13T08:21:19.849Z,91.89
2018-05-13T08:22:20.535Z,91.79
2018-05-13T08:23:21.212Z,92.08
2018-05-13T08:24:21.905Z,92.08
2018-05-13T08:25:22.584Z,91.89
2018-05-13T08:26:23.269Z,92.18
2018-05-13T08:27:23.952Z,91.69
2018-05-13T08:28:24.636Z,91.89
2018-05-13T08:29:25.373Z,90.88
2018-05-13T08:30:26.019Z,91.60
2018-05-13T08:31:26.705Z,91.55
2018-05-13T08:32:27.393Z,91.64
2018-05-13T08:33:28.093Z,91.83
2018-05-13T08:34:28.777Z,91.64
2018-05-13T08:35:29.462Z,90.97
2018-05-13T08:36:30.148Z,91.36
2018-05-13T08:37:30.831Z,90.58
2018-05-13T08:38:31.515Z,90.88
2018-05-13T08:39:32.203Z,90.88
2018-05-13T08:40:32.891Z,91.16
2018-05-13T08:41:33.571Z,90.30
2018-05-13T08:42:34.262Z,90.78
2018-05-13T08:43:34.954Z,90.39
2018-05-13T08:44:35.631Z,89.72
2018-05-13T08:45:36.318Z,90.72
2018-05-13T08:46:36.999Z,91.20
2018-05-13T08:47:37.683Z,89.86
2018-05-13T08:48:38.453Z,89.86
2018-05-13T08:49:39.055Z,91.30
2018-05-13T08:50:39.735Z,90.97
2018-05-13T08:51:40.418Z,89.91
2018-05-13T08:52:41.105Z,90.53
2018-05-13T08:53:41.767Z,90.15
2018-05-13T08:54:42.459Z,89.18
2018-05-13T08:55:43.141Z,89.18
2018-05-13T08:56:43.815Z,90.34
2018-05-13T08:57:44.504Z,89.28
2018-05-13T08:58:45.193Z,89.37
2018-05-13T08:59:45.966Z,89.67
2018-05-13T09:00:46.554Z,88.75
2018-05-13T09:01:47.236Z,87.78
2018-05-13T09:02:47.924Z,87.97
2018-05-13T09:03:48.611Z,91.25
2018-05-13T09:04:49.291Z,88.70
2018-05-13T09:05:49.974Z,87.93
2018-05-13T09:06:50.656Z,87.06
2018-05-13T09:07:51.352Z,87.88
2018-05-13T09:08:52.033Z,86.62
2018-05-13T09:09:52.717Z,86.43
2018-05-13T09:10:53.399Z,87.59
2018-05-13T09:11:54.091Z,87.30
2018-05-13T09:12:54.780Z,86.62
2018-05-13T09:13:55.468Z,86.52
2018-05-13T09:14:56.147Z,85.66
2018-05-13T09:15:56.838Z,86.33
2018-05-13T09:16:57.516Z,85.27
2018-05-13T09:17:58.208Z,85.94
2018-05-13T09:18:58.893Z,86.52
2018-05-13T09:19:59.577Z,86.28
2018-05-13T09:21:00.254Z,86.57
2018-05-13T09:22:00.939Z,86.18
2018-05-13T09:23:01.624Z,85.80
2018-05-13T09:24:02.303Z,85.89
2018-05-13T09:25:02.992Z,86.38
2018-05-13T09:26:03.673Z,87.24
2018-05-13T09:27:04.368Z,88.69
2018-05-13T09:28:05.057Z,85.12
2018-05-13T09:29:05.739Z,83.39
2018-05-13T09:30:06.422Z,83.29
2018-05-13T09:31:07.108Z,83.67
2018-05-13T09:32:07.789Z,83.77
2018-05-13T09:33:08.564Z,83.77
2018-05-13T09:34:09.163Z,85.12
2018-05-13T09:35:09.847Z,85.26
2018-05-13T09:36:10.536Z,83.81
2018-05-13T09:37:11.225Z,84.00
2018-05-13T09:38:11.907Z,83.14
2018-05-13T09:39:12.590Z,83.14
2018-05-13T09:40:13.279Z,83.81
2018-05-13T09:41:13.955Z,83.81
2018-05-13T09:42:14.636Z,82.17
2018-05-13T09:43:15.317Z,83.62
2018-05-13T09:44:15.999Z,82.69
2018-05-13T09:45:16.681Z,82.98
2018-05-13T09:46:17.372Z,83.56
2018-05-13T09:47:18.057Z,83.56
2018-05-13T09:48:18.749Z,82.11
2018-05-13T09:49:19.427Z,81.44
2018-05-13T09:50:20.121Z,79.56
2018-05-13T09:51:20.876Z,79.60
2018-05-13T09:52:21.495Z,79.70
2018-05-13T09:53:22.185Z,79.60
2018-05-13T09:54:22.869Z,81.34
2018-05-13T09:55:23.557Z,83.95
2018-05-13T09:56:24.282Z,84.14
2018-05-13T09:57:25.135Z,82.02
2018-05-13T09:58:25.821Z,81.53
2018-05-13T09:59:26.505Z,82.31
2018-05-13T10:00:27.201Z,82.02
2018-05-13T10:01:27.890Z,81.92
2018-05-13T10:02:28.610Z,81.87
2018-05-13T10:03:29.264Z,81.67
2018-05-13T10:04:29.946Z,81.38
2018-05-13T10:05:30.630Z,80.41
2018-05-13T10:06:31.320Z,80.41
2018-05-13T10:07:31.998Z,80.90
2018-05-13T10:08:32.680Z,80.22
2018-05-13T10:09:33.381Z,79.35
2018-05-13T10:10:34.057Z,79.64
2018-05-13T10:11:34.738Z,80.12
2018-05-13T10:12:35.425Z,80.22
2018-05-13T10:13:36.108Z,80.03
2018-05-13T10:14:36.791Z,80.61
2018-05-13T10:15:37.477Z,80.55
2018-05-13T10:16:38.168Z,80.03
2018-05-13T10:17:38.852Z,79.58
2018-05-13T10:18:39.544Z,78.03
2018-05-13T10:19:40.229Z,78.33
2018-05-13T10:20:40.916Z,77.40
2018-05-13T10:21:41.604Z,76.91
2018-05-13T10:22:42.285Z,75.75
2018-05-13T10:23:42.976Z,75.27
2018-05-13T10:24:43.659Z,75.37
2018-05-13T10:25:44.347Z,75.85
2018-05-13T10:26:45.033Z,75.95
2018-05-13T10:27:45.713Z,76.24
2018-05-13T10:28:46.403Z,77.40
2018-05-13T10:29:47.085Z,76.24
2018-05-13T10:30:47.768Z,75.07
2018-05-13T10:31:48.451Z,76.43
2018-05-13T10:32:49.135Z,77.59
2018-05-13T10:33:49.819Z,77.40
2018-05-13T10:34:50.503Z,75.89
2018-05-13T10:35:51.191Z,76.46
2018-05-13T10:36:51.876Z,75.98
2018-05-13T10:37:52.560Z,76.37
2018-05-13T10:38:53.245Z,75.31
2018-05-13T10:39:53.928Z,75.79
2018-05-13T10:40:54.619Z,75.73
2018-05-13T10:41:55.311Z,74.96
2018-05-13T10:42:56.005Z,75.63
2018-05-13T10:43:56.693Z,74.38
2018-05-13T10:44:57.374Z,74.38
2018-05-13T10:45:58.059Z,75.48
2018-05-13T10:46:58.740Z,75.92
2018-05-13T10:47:59.432Z,74.38
2018-05-13T10:49:00.115Z,74.41
2018-05-13T10:50:00.796Z,75.77
2018-05-13T10:51:01.494Z,75.09
2018-05-13T10:52:02.172Z,72.47
2018-05-13T10:53:02.859Z,71.89
2018-05-13T10:54:03.540Z,71.80
2018-05-13T10:55:04.226Z,71.12
2018-05-13T10:56:04.909Z,71.25
2018-05-13T10:57:05.595Z,70.34
2018-05-13T10:58:06.277Z,67.76
2018-05-13T10:59:06.966Z,67.14
2018-05-13T11:00:07.649Z,67.18
2018-05-13T11:01:08.340Z,67.37
2018-05-13T11:02:09.020Z,67.47
2018-05-13T11:03:09.711Z,67.44
2018-05-13T11:04:10.403Z,68.34
2018-05-13T11:05:11.094Z,69.89
2018-05-13T11:06:11.774Z,70.18
2018-05-13T11:07:12.460Z,69.60
2018-05-13T11:08:13.142Z,68.96
2018-05-13T11:09:13.847Z,68.08
2018-05-13T11:10:14.581Z,67.85
2018-05-13T11:11:15.224Z,68.18
2018-05-13T11:12:15.923Z,68.76
2018-05-13T11:13:16.613Z,68.96
2018-05-13T11:14:17.299Z,69.73
2018-05-13T11:15:17.980Z,68.96
2018-05-13T11:16:18.669Z,68.66
2018-05-13T11:17:19.355Z,67.76
2018-05-13T11:18:20.039Z,68.28
2018-05-13T11:19:20.731Z,68.34
2018-05-13T11:20:21.415Z,68.96
2018-05-13T11:21:22.098Z,69.48
2018-05-13T11:22:22.784Z,68.02
2018-05-13T11:23:23.467Z,67.57
2018-05-13T11:24:24.150Z,67.14
2018-05-13T11:25:24.832Z,66.27
2018-05-13T11:26:25.516Z,65.43
2018-05-13T11:27:26.200Z,65.05
2018-05-13T11:28:26.886Z,65.47
2018-05-13T11:29:27.569Z,66.27
2018-05-13T11:30:28.249Z,65.30
2018-05-13T11:31:28.933Z,67.93
2018-05-13T11:32:29.623Z,66.17
2018-05-13T11:33:30.309Z,64.75
2018-05-13T11:34:30.993Z,65.59
2018-05-13T11:35:31.737Z,65.20
2018-05-13T11:36:32.371Z,64.95
2018-05-13T11:37:33.053Z,64.56
2018-05-13T11:38:33.746Z,64.26
2018-05-13T11:39:34.432Z,63.78
2018-05-13T11:40:35.120Z,63.17
2018-05-13T11:41:35.804Z,63.26
2018-05-13T11:42:36.485Z,65.23
2018-05-13T11:43:37.171Z,62.87
2018-05-13T11:44:37.854Z,63.97
2018-05-13T11:45:38.543Z,63.49
2018-05-13T11:46:39.320Z,63.23
2018-05-13T11:47:39.915Z,62.26
2018-05-13T11:48:40.596Z,62.29
2018-05-13T11:49:41.285Z,60.79
2018-05-13T11:50:41.970Z,61.87
2018-05-13T11:51:42.652Z,61.47
2018-05-13T11:52:43.334Z,62.12
2018-05-13T11:53:44.024Z,61.21
2018-05-13T11:54:44.707Z,61.54
2018-05-13T11:55:45.389Z,59.49
2018-05-13T11:56:46.073Z,60.75
2018-05-13T11:57:46.764Z,60.08
2018-05-13T11:58:47.452Z,59.13
2018-05-13T11:59:48.136Z,59.13
2018-05-13T12:00:48.821Z,58.54
2018-05-13T12:01:49.504Z,59.30
2018-05-13T12:02:50.187Z,59.33
2018-05-13T12:03:50.874Z,59.13
2018-05-13T12:04:51.577Z,60.78
2018-05-13T12:05:52.256Z,59.06
2018-05-13T12:06:52.951Z,57.60
2018-05-13T12:07:53.663Z,58.09
2018-05-13T12:08:54.357Z,57.43
2018-05-13T12:09:55.043Z,57.53
2018-05-13T12:10:55.729Z,57.26
2018-05-13T12:11:56.416Z,57.46
2018-05-13T12:12:57.101Z,57.14
2018-05-13T12:13:57.786Z,56.48
2018-05-13T12:14:58.469Z,56.20
2018-05-13T12:15:59.160Z,55.05
2018-05-13T12:16:59.841Z,54.60
2018-05-13T12:18:00.543Z,55.58
2018-05-13T12:19:01.238Z,55.51
2018-05-13T12:20:01.931Z,55.09
2018-05-13T12:21:02.675Z,55.15
2018-05-13T12:22:03.314Z,53.58
2018-05-13T12:23:04.003Z,54.83
2018-05-13T12:24:04.697Z,53.75
2018-05-13T12:25:05.389Z,53.17
2018-05-13T12:26:06.087Z,53.39
2018-05-13T12:27:06.781Z,53.17
2018-05-13T12:28:07.470Z,54.90
2018-05-13T12:29:08.158Z,54.99
2018-05-13T12:30:08.846Z,54.63
2018-05-13T12:31:09.541Z,55.15
2018-05-13T12:32:10.229Z,52.70
2018-05-13T12:33:10.922Z,53.93
2018-05-13T12:34:11.616Z,51.90
2018-05-13T12:35:12.305Z,51.68
2018-05-13T12:36:12.999Z,51.59
2018-05-13T12:37:13.695Z,51.59
2018-05-13T12:38:14.385Z,52.73
2018-05-13T12:39:15.072Z,51.82
2018-05-13T12:40:15.759Z,51.80
2018-05-13T12:41:16.451Z,52.51
2018-05-13T12:42:17.136Z,51.98
2018-05-13T12:43:17.824Z,50.32
2018-05-13T12:44:18.516Z,51.66
2018-05-13T12:45:19.210Z,50.15
2018-05-13T12:46:19.897Z,49.48
2018-05-13T12:47:20.590Z,49.70
2018-05-13T12:48:21.280Z,48.04
2018-05-13T12:49:21.967Z,48.85
2018-05-13T12:50:22.662Z,47.30
2018-05-13T12:51:23.357Z,46.91
2018-05-13T12:52:24.048Z,46.89
2018-05-13T12:53:24.733Z,46.89
2018-05-13T12:54:25.424Z,46.74
2018-05-13T12:55:26.108Z,46.74
2018-05-13T12:56:26.795Z,47.14
2018-05-13T12:57:27.487Z,47.47
2018-05-13T12:58:28.200Z,46.79
2018-05-13T12:59:28.870Z,46.75
2018-05-13T13:00:29.557Z,46.81
2018-05-13T13:01:30.267Z,45.76